Time;durP1;ratioP1;P1;durP2;ratioP2;P2;SDS_P1;SDS_P2;PMS_P1;PMS_P2;Temp;Humidity;BMP_temperature;BMP_pressure;BME280_temperature;BME280_humidity;BME280_pressure;Samples;Min_cycle;Max_cycle;Signal;HPM_P1;HPM_P2
2021/06/12 00:04:30;;;;;;;6.37;5.73;;;21.90;30.70;;;;;;10388262;28;20248;-73
2021/06/12 00:09:33;;;;;;;6.03;5.40;;;21.80;31.20;;;;;;10379271;28;20242;-75
2021/06/12 00:14:36;;;;;;;6.60;6.10;;;21.70;31.00;;;;;;10389639;28;20233;-73
2021/06/12 00:19:40;;;;;;;6.60;5.73;;;21.60;31.30;;;;;;10384889;28;20240;-73
2021/06/12 00:24:43;;;;;;;8.40;5.83;;;21.60;31.90;;;;;;10385545;28;20613;-72
2021/06/12 00:29:45;;;;;;;5.80;5.30;;;21.70;31.40;;;;;;10383230;28;20234;-73
2021/06/12 00:34:49;;;;;;;5.80;5.40;;;21.60;31.40;;;;;;10385126;28;20233;-73
2021/06/12 00:39:52;;;;;;;5.63;5.23;;;21.60;32.10;;;;;;10381974;28;20280;-74
2021/06/12 00:44:55;;;;;;;6.23;5.83;;;21.60;32.00;;;;;;10378730;28;20311;-73
2021/06/12 00:49:59;;;;;;;5.17;4.70;;;21.60;32.00;;;;;;10385794;28;20237;-74
2021/06/12 00:55:02;;;;;;;6.47;5.87;;;21.60;32.60;;;;;;10387064;28;20599;-74
2021/06/12 01:00:07;;;;;;;6.23;5.80;;;21.60;32.10;;;;;;10386506;28;20222;-73
2021/06/12 01:05:13;;;;;;;6.73;6.23;;;21.60;32.70;;;;;;10381109;28;20233;-73
2021/06/12 01:10:17;;;;;;;6.77;6.27;;;21.60;33.40;;;;;;10381417;28;20234;-75
2021/06/12 01:15:22;;;;;;;6.63;6.13;;;21.50;32.90;;;;;;10379597;28;21009;-75
2021/06/12 01:20:59;;;;;;;6.63;6.20;;;21.40;32.90;;;;;;10381938;28;20265;-75
2021/06/12 01:26:10;;;;;;;6.93;6.23;;;21.30;33.50;;;;;;10375688;28;20226;-75
2021/06/12 01:31:17;;;;;;;6.43;5.93;;;21.10;33.90;;;;;;10377543;28;20234;-75
2021/06/12 01:36:22;;;;;;;5.97;5.47;;;21.00;33.70;;;;;;10388575;28;20249;-74
2021/06/12 01:41:27;;;;;;;6.67;6.17;;;20.90;33.20;;;;;;10384694;28;20242;-74
2021/06/12 01:46:31;;;;;;;6.37;5.90;;;20.80;33.80;;;;;;10384983;28;20237;-74
2021/06/12 01:51:35;;;;;;;6.80;6.07;;;20.80;34.00;;;;;;10380702;28;20233;-75
2021/06/12 01:56:40;;;;;;;6.57;6.07;;;20.80;33.90;;;;;;10377790;28;20245;-75
2021/06/12 02:01:48;;;;;;;6.43;5.93;;;20.80;34.10;;;;;;10380622;28;20230;-74
2021/06/12 02:06:52;;;;;;;6.80;6.30;;;20.70;34.30;;;;;;10383184;28;20300;-74
2021/06/12 02:11:55;;;;;;;6.20;5.70;;;20.70;33.80;;;;;;10378401;28;20246;-75
2021/06/12 02:17:00;;;;;;;6.70;6.20;;;20.70;33.60;;;;;;10376208;28;20288;-74
2021/06/12 02:22:05;;;;;;;5.90;5.50;;;20.60;34.60;;;;;;10382404;28;20589;-75
2021/06/12 02:27:09;;;;;;;6.60;6.10;;;20.60;34.00;;;;;;10381571;28;20606;-75
2021/06/12 02:32:14;;;;;;;6.77;6.27;;;20.50;34.40;;;;;;10383887;28;20230;-75
2021/06/12 02:37:17;;;;;;;6.87;6.27;;;20.50;35.00;;;;;;10378721;28;20242;-75
2021/06/12 02:42:20;;;;;;;7.40;6.23;;;20.40;34.30;;;;;;10384636;28;20234;-75
2021/06/12 02:47:26;;;;;;;5.93;5.33;;;20.50;34.40;;;;;;10375259;28;20230;-75
2021/06/12 02:52:32;;;;;;;6.57;6.07;;;20.40;35.00;;;;;;10380575;28;20238;-74
2021/06/12 02:57:37;;;;;;;6.73;6.10;;;20.40;35.10;;;;;;10381206;28;20237;-74
2021/06/12 03:02:44;;;;;;;6.50;6.00;;;20.40;34.50;;;;;;10377772;28;20242;-74
2021/06/12 03:07:49;;;;;;;6.33;5.93;;;20.50;35.50;;;;;;10375747;28;20237;-75
2021/06/12 03:12:54;;;;;;;6.87;6.37;;;20.50;35.20;;;;;;10381999;28;20245;-75
2021/06/12 03:18:00;;;;;;;6.87;6.27;;;20.50;34.70;;;;;;10383424;28;20626;-75
2021/06/12 03:23:03;;;;;;;6.27;5.77;;;20.50;34.90;;;;;;10379146;28;20225;-75
2021/06/12 03:28:06;;;;;;;7.10;6.60;;;20.40;34.60;;;;;;10376951;28;20761;-75
2021/06/12 03:33:11;;;;;;;6.73;6.23;;;20.30;34.40;;;;;;10376402;28;20234;-75
2021/06/12 03:38:15;;;;;;;6.60;6.10;;;20.10;35.20;;;;;;10378861;28;20243;-75
2021/06/12 03:43:19;;;;;;;6.60;6.10;;;20.00;35.00;;;;;;10378836;28;20232;-75
2021/06/12 03:48:24;;;;;;;6.53;6.03;;;19.90;35.20;;;;;;10380575;28;20692;-75
2021/06/12 03:53:31;;;;;;;7.20;6.63;;;19.80;35.80;;;;;;10387090;28;20322;-75
2021/06/12 03:58:33;;;;;;;6.40;5.93;;;19.80;36.30;;;;;;10386976;28;21007;-74
2021/06/12 04:03:37;;;;;;;7.03;6.33;;;19.80;35.50;;;;;;10385106;28;20721;-74
2021/06/12 04:08:41;;;;;;;6.57;6.13;;;19.80;36.30;;;;;;10389331;28;20230;-74
2021/06/12 04:13:43;;;;;;;6.83;6.40;;;19.80;36.00;;;;;;10386785;28;20249;-74
2021/06/12 04:18:47;;;;;;;7.20;6.60;;;19.80;35.90;;;;;;10389543;28;20620;-74
2021/06/12 04:23:50;;;;;;;7.50;6.80;;;19.70;36.20;;;;;;10385684;28;20229;-74
2021/06/12 04:28:53;;;;;;;7.30;6.67;;;19.70;36.20;;;;;;10383660;28;20229;-74
2021/06/12 04:33:57;;;;;;;7.03;6.53;;;19.70;36.20;;;;;;10380414;28;20241;-74
2021/06/12 04:39:00;;;;;;;7.17;6.57;;;19.70;36.60;;;;;;10385358;28;20233;-74
2021/06/12 04:44:02;;;;;;;7.43;6.73;;;19.60;36.20;;;;;;10378448;28;20233;-75
2021/06/12 04:49:06;;;;;;;7.60;7.00;;;19.70;36.40;;;;;;10386747;28;20237;-74
2021/06/12 04:54:09;;;;;;;7.40;6.80;;;19.70;37.40;;;;;;10381578;28;20264;-74
2021/06/12 04:59:12;;;;;;;6.77;6.27;;;19.70;36.90;;;;;;10379562;28;20228;-74
2021/06/12 05:04:16;;;;;;;7.83;7.20;;;19.70;37.20;;;;;;10380414;28;20248;-74
2021/06/12 05:09:18;;;;;;;7.40;6.80;;;19.80;37.90;;;;;;10388643;28;20237;-74
2021/06/12 05:14:21;;;;;;;7.27;6.67;;;19.90;37.20;;;;;;10380271;28;20604;-74
2021/06/12 05:19:25;;;;;;;7.57;6.87;;;20.10;37.40;;;;;;10383301;28;20613;-74
2021/06/12 05:24:28;;;;;;;7.33;6.73;;;20.20;38.00;;;;;;10384755;28;20237;-74
2021/06/12 05:29:31;;;;;;;7.03;6.53;;;20.40;37.70;;;;;;10382445;28;20234;-74
2021/06/12 05:34:35;;;;;;;7.10;6.60;;;20.50;37.60;;;;;;10383415;28;20249;-74
2021/06/12 05:39:38;;;;;;;7.20;6.70;;;20.70;38.20;;;;;;10377443;28;20241;-74
2021/06/12 05:44:40;;;;;;;7.53;6.93;;;20.80;37.50;;;;;;10380313;28;20234;-74
2021/06/12 05:49:44;;;;;;;7.37;6.67;;;21.00;38.00;;;;;;10383859;28;20229;-74
2021/06/12 05:54:47;;;;;;;7.07;6.47;;;21.20;38.20;;;;;;10381431;28;20236;-75
2021/06/12 05:59:50;;;;;;;7.73;7.13;;;21.40;37.70;;;;;;10385788;28;20236;-78
2021/06/12 06:04:54;;;;;;;7.63;7.03;;;21.60;37.90;;;;;;10395140;28;20234;-78
2021/06/12 06:09:58;;;;;;;7.53;6.87;;;21.80;38.10;;;;;;10385688;28;20229;-75
2021/06/12 06:15:01;;;;;;;7.37;6.87;;;22.00;37.60;;;;;;10380141;28;20260;-75
2021/06/12 06:20:07;;;;;;;8.10;7.40;;;22.20;37.60;;;;;;10383074;28;20230;-76
2021/06/12 06:25:11;;;;;;;7.60;7.00;;;22.40;37.30;;;;;;10381903;28;20236;-76
2021/06/12 06:30:15;;;;;;;7.60;6.93;;;22.70;37.20;;;;;;10381201;28;20234;-76
2021/06/12 06:35:19;;;;;;;6.93;6.50;;;22.90;37.30;;;;;;10379981;28;20234;-75
2021/06/12 06:40:22;;;;;;;7.63;7.07;;;23.00;36.70;;;;;;10387069;28;20236;-76
2021/06/12 06:45:26;;;;;;;7.27;6.77;;;23.30;36.60;;;;;;10394419;28;20600;-78
2021/06/12 06:50:30;;;;;;;7.80;7.20;;;23.50;36.50;;;;;;10392064;28;20236;-78
2021/06/12 06:55:33;;;;;;;7.03;6.40;;;23.60;36.30;;;;;;10390584;28;20241;-78
2021/06/12 07:00:36;;;;;;;7.47;6.97;;;23.80;36.10;;;;;;10390584;28;20234;-78
2021/06/12 07:05:40;;;;;;;7.43;6.93;;;23.90;35.90;;;;;;10388346;28;20691;-75
2021/06/12 07:10:43;;;;;;;8.00;7.40;;;24.00;36.30;;;;;;10380372;28;20237;-74
2021/06/12 07:15:45;;;;;;;7.03;6.53;;;24.20;36.00;;;;;;10385124;28;20722;-75
2021/06/12 07:20:50;;;;;;;6.80;6.30;;;24.30;35.90;;;;;;10379749;28;20234;-75
2021/06/12 07:25:53;;;;;;;7.83;7.20;;;24.50;35.80;;;;;;10383234;28;20713;-75
2021/06/12 07:30:56;;;;;;;6.87;6.27;;;24.70;35.90;;;;;;10385457;28;20241;-75
2021/06/12 07:36:00;;;;;;;6.53;6.03;;;24.90;36.00;;;;;;10390743;28;20236;-75
2021/06/12 07:41:03;;;;;;;7.27;6.57;;;25.10;35.20;;;;;;10382713;28;20234;-75
2021/06/12 07:46:05;;;;;;;6.40;5.90;;;25.20;35.00;;;;;;10388187;28;20234;-75
2021/06/12 07:51:09;;;;;;;5.87;5.47;;;25.40;35.20;;;;;;10388270;28;20276;-74
2021/06/12 07:56:12;;;;;;;6.23;5.83;;;25.50;34.60;;;;;;10387028;28;20245;-74
2021/06/12 08:01:15;;;;;;;6.87;6.37;;;25.70;34.70;;;;;;10383161;28;20265;-74
2021/06/12 08:06:20;;;;;;;6.53;6.03;;;26.00;34.60;;;;;;10386473;28;20256;-73
2021/06/12 08:11:22;;;;;;;6.03;5.63;;;26.20;34.20;;;;;;10389469;28;20257;-74
2021/06/12 08:16:25;;;;;;;6.40;5.90;;;26.40;34.20;;;;;;10387552;28;20229;-77
2021/06/12 08:21:29;;;;;;;7.00;6.40;;;26.60;34.30;;;;;;10384881;28;20238;-75
2021/06/12 08:26:32;;;;;;;6.43;5.80;;;26.70;33.60;;;;;;10372385;28;20233;-75
2021/06/12 08:31:35;;;;;;;6.83;6.33;;;26.90;33.50;;;;;;10392439;28;20237;-73
2021/06/12 08:36:40;;;;;;;6.70;6.20;;;27.00;33.20;;;;;;10389974;28;20260;-74
2021/06/12 08:41:42;;;;;;;7.00;6.37;;;27.10;33.40;;;;;;10384154;28;20265;-75
2021/06/12 08:46:46;;;;;;;6.50;6.00;;;27.30;33.20;;;;;;10382895;28;20217;-75
2021/06/12 08:51:50;;;;;;;6.73;6.27;;;27.50;33.00;;;;;;10382318;28;20928;-75
2021/06/12 08:56:52;;;;;;;6.60;6.07;;;27.60;32.10;;;;;;10385479;28;20878;-75
2021/06/12 09:01:55;;;;;;;6.57;5.97;;;27.80;32.30;;;;;;10383771;28;20234;-82
2021/06/12 09:07:25;;;;;;;6.00;5.60;;;28.00;31.90;;;;;;10386702;28;20348;-76
2021/06/12 09:12:46;;;;;;;5.90;5.50;;;28.10;30.80;;;;;;10387993;28;20724;-76
2021/06/12 09:17:50;;;;;;;5.70;5.30;;;28.20;30.30;;;;;;10381053;28;20225;-75
2021/06/12 09:23:08;;;;;;;5.33;4.97;;;28.40;30.00;;;;;;10388306;28;20236;-75
2021/06/12 09:28:11;;;;;;;5.30;5.00;;;28.50;28.00;;;;;;10381343;28;20589;-75
2021/06/12 09:33:14;;;;;;;4.97;4.67;;;28.60;29.50;;;;;;10384616;28;20250;-76
2021/06/12 09:38:25;;;;;;;5.80;5.30;;;28.60;29.00;;;;;;10387011;28;20608;-76
2021/06/12 09:43:29;;;;;;;5.13;4.83;;;28.70;27.10;;;;;;10381193;28;20234;-76
2021/06/12 09:48:31;;;;;;;5.10;4.80;;;28.70;28.60;;;;;;10381384;28;20253;-76
2021/06/12 09:53:47;;;;;;;6.43;5.80;;;28.90;28.80;;;;;;10377572;28;20222;-76
2021/06/12 09:58:49;;;;;;;5.80;5.40;;;29.00;28.10;;;;;;10377796;28;20233;-76
2021/06/12 10:04:16;;;;;;;5.97;5.47;;;29.20;29.10;;;;;;10379266;28;20618;-76
2021/06/12 10:09:22;;;;;;;7.60;5.20;;;29.30;28.30;;;;;;10362016;28;20229;-75
2021/06/12 10:14:25;;;;;;;5.30;5.00;;;29.40;27.80;;;;;;10375867;28;20242;-76
2021/06/12 10:19:30;;;;;;;4.70;4.30;;;29.50;28.10;;;;;;10373152;28;20226;-76
2021/06/12 10:24:35;;;;;;;4.83;4.40;;;29.60;27.30;;;;;;10379564;28;20268;-76
2021/06/12 10:29:38;;;;;;;4.70;4.40;;;29.80;27.00;;;;;;10376062;28;20225;-76
2021/06/12 10:34:41;;;;;;;4.73;4.43;;;29.90;27.20;;;;;;10374602;28;20230;-75
2021/06/12 10:39:46;;;;;;;4.67;4.27;;;30.00;26.80;;;;;;10367025;28;20646;-75
2021/06/12 10:44:50;;;;;;;4.83;4.53;;;30.00;26.40;;;;;;10379803;28;20237;-75
2021/06/12 10:49:56;;;;;;;4.83;4.43;;;30.00;26.40;;;;;;10375369;28;20229;-75
2021/06/12 10:55:01;;;;;;;4.60;4.30;;;29.90;25.60;;;;;;10369575;28;20226;-76
2021/06/12 11:00:04;;;;;;;4.20;3.90;;;29.80;26.10;;;;;;10376668;28;20260;-76
2021/06/12 11:05:26;;;;;;;4.50;4.20;;;29.60;25.80;;;;;;10392050;28;20225;-75
2021/06/12 11:10:31;;;;;;;4.47;4.17;;;29.50;26.00;;;;;;10378463;28;20225;-74
2021/06/12 11:15:35;;;;;;;4.10;3.80;;;29.50;26.30;;;;;;10383153;28;20241;-74
2021/06/12 11:20:41;;;;;;;4.07;3.83;;;29.60;26.00;;;;;;10382683;28;20244;-75
2021/06/12 11:25:55;;;;;;;4.70;4.40;;;29.60;26.10;;;;;;10396981;28;20576;-81
2021/06/12 11:31:35;;;;;;;4.90;4.60;;;29.60;25.20;;;;;;10401882;28;20264;-81
2021/06/12 11:36:38;;;;;;;5.10;4.70;;;29.60;25.40;;;;;;10401987;28;20233;-81
2021/06/12 11:41:42;;;;;;;5.57;5.07;;;29.60;26.10;;;;;;10397939;28;20588;-81
2021/06/12 11:46:45;;;;;;;5.30;4.80;;;29.50;26.40;;;;;;10391091;28;20249;-75
2021/06/12 11:51:48;;;;;;;5.43;5.03;;;29.50;26.40;;;;;;10388845;28;20233;-76
2021/06/12 11:56:54;;;;;;;5.23;4.83;;;29.60;26.10;;;;;;10391997;28;20236;-76
2021/06/12 12:02:00;;;;;;;5.30;4.80;;;29.60;26.00;;;;;;10392171;28;20229;-74
2021/06/12 12:07:06;;;;;;;5.10;4.70;;;29.60;26.00;;;;;;10391045;28;20235;-75
2021/06/12 12:12:12;;;;;;;5.30;4.80;;;29.60;25.60;;;;;;10378892;28;20220;-74
2021/06/12 12:17:21;;;;;;;5.57;4.90;;;29.60;25.60;;;;;;10385111;28;20221;-74
2021/06/12 12:22:35;;;;;;;5.17;4.77;;;29.60;25.40;;;;;;10387276;28;20245;-75
2021/06/12 12:27:40;;;;;;;4.67;4.27;;;29.70;25.40;;;;;;10382893;28;20238;-76
2021/06/12 12:32:42;;;;;;;4.73;4.33;;;29.80;25.80;;;;;;10382428;28;20225;-75
2021/06/12 12:37:45;;;;;;;4.67;4.37;;;30.00;25.60;;;;;;10374418;28;20738;-70
2021/06/12 12:43:00;;;;;;;4.70;4.40;;;30.10;25.60;;;;;;10380329;28;20249;-75
2021/06/12 12:48:09;;;;;;;5.57;4.40;;;30.20;24.80;;;;;;10378331;28;20270;-75
2021/06/12 12:53:15;;;;;;;4.00;3.70;;;30.30;24.80;;;;;;10385558;28;20237;-75
2021/06/12 12:58:25;;;;;;;4.17;3.87;;;30.20;24.70;;;;;;10386146;28;20236;-75
2021/06/12 13:03:28;;;;;;;4.13;3.73;;;30.20;24.40;;;;;;10386073;28;20233;-75
2021/06/12 13:08:31;;;;;;;3.93;3.63;;;30.20;24.60;;;;;;10385866;28;20602;-75
2021/06/12 13:13:41;;;;;;;3.83;3.63;;;30.20;25.10;;;;;;10387986;28;20238;-75
2021/06/12 13:18:44;;;;;;;3.83;3.63;;;30.30;23.60;;;;;;10383161;28;20733;-75
2021/06/12 13:23:59;;;;;;;4.37;3.97;;;30.30;24.70;;;;;;10385322;28;20721;-75
2021/06/12 13:29:16;;;;;;;3.60;3.30;;;30.30;24.00;;;;;;10385143;28;20221;-73
2021/06/12 13:34:29;;;;;;;3.27;2.97;;;30.30;24.00;;;;;;10385383;28;20248;-75
2021/06/12 13:39:35;;;;;;;3.27;3.00;;;30.30;23.70;;;;;;10380842;28;21249;-75
2021/06/12 13:44:40;;;;;;;2.70;2.50;;;30.30;23.50;;;;;;10385262;28;20238;-76
2021/06/12 13:49:42;;;;;;;3.10;2.70;;;30.30;23.60;;;;;;10381894;28;20236;-76
2021/06/12 13:54:45;;;;;;;2.20;2.10;;;30.30;23.20;;;;;;10389092;28;20238;-75
2021/06/12 13:59:49;;;;;;;2.50;2.30;;;30.40;23.10;;;;;;10403174;28;20236;-80
2021/06/12 14:04:52;;;;;;;2.33;2.23;;;30.40;21.90;;;;;;10398729;28;20233;-79
2021/06/12 14:09:54;;;;;;;2.33;2.23;;;30.40;22.70;;;;;;10396265;28;20251;-79
2021/06/12 14:14:59;;;;;;;2.50;2.30;;;30.40;22.50;;;;;;10407096;28;20234;-79
2021/06/12 14:20:04;;;;;;;3.43;2.50;;;30.40;22.20;;;;;;10403758;28;20607;-75
2021/06/12 14:25:07;;;;;;;2.70;2.30;;;30.50;22.20;;;;;;10388099;28;20233;-75
2021/06/12 14:30:13;;;;;;;2.50;2.30;;;30.40;22.10;;;;;;10394032;28;20229;-79
2021/06/12 14:35:16;;;;;;;3.57;2.50;;;30.40;21.80;;;;;;10388155;28;20226;-80
2021/06/12 14:40:19;;;;;;;4.60;2.30;;;30.30;22.10;;;;;;10390105;28;20710;-80
2021/06/12 14:45:30;;;;;;;2.30;2.20;;;30.30;21.60;;;;;;10397992;28;20229;-78
2021/06/12 14:50:33;;;;;;;2.40;2.30;;;30.20;21.60;;;;;;10386286;28;20605;-76
2021/06/12 14:55:36;;;;;;;2.27;2.17;;;30.10;22.10;;;;;;10380197;28;20237;-76
2021/06/12 15:00:40;;;;;;;3.23;2.87;;;30.10;21.80;;;;;;10381293;28;20252;-76
2021/06/12 15:05:43;;;;;;;2.13;2.03;;;30.20;21.60;;;;;;10392698;28;20230;-76
2021/06/12 15:10:46;;;;;;;2.67;2.57;;;30.00;21.60;;;;;;10387462;28;20241;-77
2021/06/12 15:15:50;;;;;;;2.00;1.90;;;30.00;21.50;;;;;;10395172;28;20265;-78
2021/06/12 15:20:53;;;;;;;2.00;1.90;;;30.00;21.10;;;;;;10384566;28;20269;-77
2021/06/12 15:25:56;;;;;;;2.10;2.00;;;30.00;21.10;;;;;;10387661;28;20234;-77
2021/06/12 15:31:16;;;;;;;2.10;2.00;;;30.00;21.10;;;;;;10375679;28;20300;-78
2021/06/12 15:36:19;;;;;;;2.20;2.10;;;29.90;21.10;;;;;;10369184;28;20291;-77
2021/06/12 15:41:22;;;;;;;2.03;1.93;;;29.90;21.50;;;;;;10393323;28;20710;-78
2021/06/12 15:46:28;;;;;;;2.70;2.37;;;29.90;21.70;;;;;;10396636;28;20234;-77
2021/06/12 15:51:30;;;;;;;2.30;2.20;;;29.80;21.20;;;;;;10391488;28;20242;-74
2021/06/12 15:56:33;;;;;;;2.30;2.20;;;29.70;21.50;;;;;;10396711;28;20233;-78
2021/06/12 16:01:55;;;;;;;2.30;2.07;;;29.60;21.80;;;;;;10392091;28;20295;-77
2021/06/12 16:06:58;;;;;;;2.40;2.30;;;29.60;21.70;;;;;;10387074;28;20284;-77
2021/06/12 16:12:01;;;;;;;2.90;2.20;;;29.50;21.80;;;;;;10392401;28;20226;-75
2021/06/12 16:17:05;;;;;;;3.10;2.07;;;29.40;21.50;;;;;;10398127;28;20620;-77
2021/06/12 16:22:08;;;;;;;2.20;2.10;;;29.40;21.40;;;;;;10391183;28;20229;-77
2021/06/12 16:27:11;;;;;;;2.10;2.00;;;29.30;21.70;;;;;;10384492;28;20846;-77
2021/06/12 16:32:15;;;;;;;2.37;2.27;;;29.30;21.80;;;;;;10386702;28;20895;-77
2021/06/12 16:37:19;;;;;;;2.43;2.00;;;29.30;21.60;;;;;;10396049;28;20710;-77
2021/06/12 16:42:22;;;;;;;2.13;1.90;;;29.30;21.60;;;;;;10389146;28;20229;-78
2021/06/12 16:47:28;;;;;;;1.93;1.77;;;29.30;22.30;;;;;;10395690;28;20230;-78
2021/06/12 16:52:31;;;;;;;1.97;1.87;;;29.30;21.70;;;;;;10388271;28;20266;-77
2021/06/12 16:57:46;;;;;;;1.97;1.80;;;29.20;21.80;;;;;;10394433;28;20629;-77
2021/06/12 17:02:51;;;;;;;2.47;1.97;;;29.20;22.10;;;;;;10392728;28;20233;-75
2021/06/12 17:07:55;;;;;;;2.57;2.40;;;29.20;22.10;;;;;;10393173;28;20227;-74
2021/06/12 17:12:57;;;;;;;2.20;2.00;;;29.10;22.30;;;;;;10386224;28;20693;-74
2021/06/12 17:18:02;;;;;;;2.23;2.03;;;29.10;22.50;;;;;;10390225;28;20230;-74
2021/06/12 17:23:05;;;;;;;3.07;2.10;;;29.00;22.50;;;;;;10382917;28;20596;-75
2021/06/12 17:28:08;;;;;;;2.13;2.00;;;29.00;22.60;;;;;;10392519;28;20678;-78
2021/06/12 17:33:32;;;;;;;5.47;2.10;;;28.90;22.70;;;;;;10394871;28;20233;-79
2021/06/12 17:38:35;;;;;;;1.90;1.80;;;29.00;22.90;;;;;;10387920;28;20669;-78
2021/06/12 17:43:38;;;;;;;3.20;2.23;;;28.90;23.10;;;;;;10399094;28;20230;-78
2021/06/12 17:48:42;;;;;;;2.43;1.90;;;28.90;23.10;;;;;;10393413;28;20748;-77
2021/06/12 17:53:45;;;;;;;2.60;2.10;;;28.80;23.00;;;;;;10382568;28;20230;-78
2021/06/12 17:58:48;;;;;;;2.57;1.80;;;28.80;23.30;;;;;;10386937;28;20253;-78
2021/06/12 18:03:52;;;;;;;2.00;1.90;;;28.70;23.30;;;;;;10393551;28;20781;-78
2021/06/12 18:08:55;;;;;;;1.90;1.80;;;28.70;23.40;;;;;;10392203;28;20226;-75
2021/06/12 18:14:00;;;;;;;2.67;1.90;;;28.70;23.40;;;;;;10372676;28;20237;-75
2021/06/12 18:19:04;;;;;;;1.93;1.80;;;28.60;23.40;;;;;;10386328;28;20600;-76
2021/06/12 18:24:07;;;;;;;1.73;1.63;;;28.50;23.50;;;;;;10391865;28;20229;-75
2021/06/12 18:29:10;;;;;;;2.23;1.60;;;28.50;23.40;;;;;;10378136;28;20241;-76
2021/06/12 18:34:14;;;;;;;1.73;1.63;;;28.40;23.30;;;;;;10381404;28;20233;-75
2021/06/12 18:39:17;;;;;;;2.27;2.00;;;28.30;23.80;;;;;;10379170;28;20801;-75
2021/06/12 18:44:20;;;;;;;2.30;2.10;;;28.20;24.30;;;;;;10385642;28;20238;-75
2021/06/12 18:49:24;;;;;;;2.17;2.07;;;28.00;24.50;;;;;;10384740;28;20234;-80
2021/06/12 18:54:27;;;;;;;2.60;2.40;;;27.80;24.80;;;;;;10396562;28;20237;-80
2021/06/12 18:59:31;;;;;;;2.83;2.43;;;27.60;24.80;;;;;;10397807;28;20308;-80
2021/06/12 19:04:37;;;;;;;3.40;2.33;;;27.40;24.90;;;;;;10392028;28;20323;-78
2021/06/12 19:09:42;;;;;;;2.97;2.10;;;27.20;25.00;;;;;;10383118;28;20236;-78
2021/06/12 19:14:45;;;;;;;2.23;2.13;;;27.00;24.90;;;;;;10389758;28;20970;-78
2021/06/12 19:19:49;;;;;;;2.73;2.50;;;26.90;25.10;;;;;;10384397;28;20218;-78
2021/06/12 19:24:52;;;;;;;2.80;2.60;;;26.80;25.40;;;;;;10391871;28;20242;-80
2021/06/12 19:29:55;;;;;;;4.97;2.30;;;26.60;25.30;;;;;;10401505;28;20233;-75
2021/06/12 19:35:09;;;;;;;4.17;2.27;;;26.50;25.30;;;;;;10376771;28;20253;-75
2021/06/12 19:40:14;;;;;;;3.67;2.50;;;26.40;25.70;;;;;;10379071;28;20226;-75
2021/06/12 19:45:19;;;;;;;2.77;2.60;;;26.20;25.80;;;;;;10389742;28;20924;-75
2021/06/12 19:50:23;;;;;;;2.67;2.47;;;26.00;25.90;;;;;;10380289;28;20242;-75
2021/06/12 19:55:27;;;;;;;2.90;2.70;;;25.90;26.20;;;;;;10379995;28;20230;-76
2021/06/12 20:00:29;;;;;;;2.80;2.60;;;25.80;26.30;;;;;;10380764;28;20227;-77
2021/06/12 20:05:35;;;;;;;2.57;2.40;;;25.60;26.30;;;;;;10386369;28;20237;-78
2021/06/12 20:10:38;;;;;;;2.83;2.63;;;25.50;26.70;;;;;;10398383;28;20222;-78
2021/06/12 20:15:44;;;;;;;2.60;2.40;;;25.50;26.60;;;;;;10388572;28;20236;-77
2021/06/12 20:20:49;;;;;;;2.90;2.70;;;25.40;26.60;;;;;;10376755;28;20601;-75
2021/06/12 20:25:53;;;;;;;3.20;2.60;;;25.40;26.90;;;;;;10385554;28;20229;-74
2021/06/12 20:30:56;;;;;;;2.77;2.60;;;25.40;26.70;;;;;;10379189;28;20230;-75
2021/06/12 20:36:01;;;;;;;3.47;2.80;;;25.40;26.70;;;;;;10377650;28;21305;-75
2021/06/12 20:41:04;;;;;;;3.07;2.87;;;25.40;26.90;;;;;;10381009;28;20249;-77
2021/06/12 20:46:07;;;;;;;3.10;2.90;;;25.30;26.70;;;;;;10386453;28;20674;-77
2021/06/12 20:51:12;;;;;;;2.67;2.50;;;25.20;26.90;;;;;;10372396;28;20230;-77
2021/06/12 20:56:15;;;;;;;3.10;2.90;;;25.20;27.30;;;;;;10374547;28;20242;-77
2021/06/12 21:01:18;;;;;;;3.10;2.80;;;25.10;27.20;;;;;;10381270;28;20237;-77
2021/06/12 21:06:22;;;;;;;2.93;2.73;;;25.00;27.20;;;;;;10378131;28;20630;-77
2021/06/12 21:11:24;;;;;;;2.90;2.70;;;24.90;27.50;;;;;;10397478;28;20236;-77
2021/06/12 21:16:27;;;;;;;3.00;2.80;;;24.80;27.40;;;;;;10383981;28;20241;-77
2021/06/12 21:21:32;;;;;;;3.03;2.83;;;24.70;27.50;;;;;;10376006;28;20230;-77
2021/06/12 21:26:35;;;;;;;3.33;3.03;;;24.70;27.90;;;;;;10381732;28;20586;-77
2021/06/12 21:31:38;;;;;;;2.97;2.77;;;24.60;27.60;;;;;;10382279;28;20613;-77
2021/06/12 21:36:42;;;;;;;3.30;3.10;;;24.60;27.80;;;;;;10385750;28;20280;-77
2021/06/12 21:41:45;;;;;;;3.77;3.17;;;24.50;28.00;;;;;;10386538;28;20229;-77
2021/06/12 21:46:49;;;;;;;5.17;2.80;;;24.50;27.80;;;;;;10381308;28;20242;-77
2021/06/12 21:51:58;;;;;;;2.90;2.70;;;24.50;27.90;;;;;;10388150;28;20317;-78
2021/06/12 21:57:01;;;;;;;3.00;2.70;;;24.40;28.10;;;;;;10387605;28;20661;-77
2021/06/12 22:02:04;;;;;;;3.43;3.10;;;24.40;27.70;;;;;;10392769;28;20227;-76
2021/06/12 22:07:08;;;;;;;3.30;3.00;;;24.30;27.80;;;;;;10379010;28;20252;-75
2021/06/12 22:12:11;;;;;;;3.20;2.90;;;24.20;28.20;;;;;;10383921;28;20224;-74
2021/06/12 22:17:14;;;;;;;3.30;3.10;;;24.10;28.10;;;;;;10381589;28;20445;-74
2021/06/12 22:22:18;;;;;;;3.60;3.20;;;23.90;27.90;;;;;;10379277;28;20260;-74
2021/06/12 22:27:20;;;;;;;3.80;3.50;;;23.90;27.90;;;;;;10380048;28;20233;-74
2021/06/12 22:32:23;;;;;;;3.43;3.17;;;23.90;27.90;;;;;;10384698;28;20237;-74
2021/06/12 22:37:27;;;;;;;3.30;3.00;;;23.80;27.90;;;;;;10385031;28;20737;-74
2021/06/12 22:42:30;;;;;;;3.57;3.30;;;23.70;27.80;;;;;;10375265;28;20241;-74
2021/06/12 22:47:33;;;;;;;3.30;3.00;;;23.60;27.80;;;;;;10379452;28;20242;-74
2021/06/12 22:52:38;;;;;;;3.80;3.50;;;23.60;27.80;;;;;;10378405;28;20234;-74
2021/06/12 22:57:41;;;;;;;3.77;3.47;;;23.50;28.30;;;;;;10386089;28;20259;-74
2021/06/12 23:02:44;;;;;;;3.90;3.60;;;23.40;28.10;;;;;;10383247;28;20749;-74
2021/06/12 23:07:48;;;;;;;4.20;3.83;;;23.30;28.10;;;;;;10383972;28;20266;-76
2021/06/12 23:12:51;;;;;;;3.80;3.60;;;23.20;28.50;;;;;;10387597;28;20230;-74
2021/06/12 23:17:54;;;;;;;4.07;3.77;;;23.10;28.30;;;;;;10388723;28;20230;-74
2021/06/12 23:22:58;;;;;;;4.57;4.17;;;23.10;28.50;;;;;;10388485;28;20234;-74
2021/06/12 23:28:01;;;;;;;4.33;4.03;;;23.00;28.70;;;;;;10387405;28;20225;-76
2021/06/12 23:33:04;;;;;;;4.27;3.97;;;22.90;28.60;;;;;;10390209;28;20226;-74
2021/06/12 23:38:08;;;;;;;4.67;4.27;;;22.90;28.90;;;;;;10385146;28;20234;-74
2021/06/12 23:43:11;;;;;;;4.50;4.17;;;22.80;28.90;;;;;;10385275;28;20280;-74
2021/06/12 23:48:14;;;;;;;5.13;4.63;;;22.70;28.90;;;;;;10390702;28;20240;-74
2021/06/12 23:53:18;;;;;;;5.20;4.80;;;22.60;28.90;;;;;;10381755;28;20663;-74
2021/06/12 23:58:20;;;;;;;4.87;4.47;;;22.50;29.20;;;;;;10387162;28;20238;-74
